Wilmington, OH (45177)

2:53 PM EDT on July 26, 2016 (GMT -0400)
2.2 N Wilmington | | Change Station

Elev 1053 ft 39.47 °N, 83.84 °W | Updated 8 minutes ago

Overcast
Overcast
79.1 °F
Feels Like 82 °F
N
1.0
Wind Variable Wind from NNW
Gusts 5.0 mph

Today
High -- | Low -- °F
--% Chance of Precip.
Yesterday
High -- | Low -- °F
Precip. -- in
Pressure 30.00 in
Visibility 10.0 miles
Clouds Few 2400 ft
Mostly Cloudy 3500 ft
Mostly Cloudy 4600 ft
Heat Index 82 °F
Dew Point 73 °F
Humidity 81%
Rainfall 0.00 in
Snow Depth Not available.
6:30 AM 8:53 PM
Waning Gibbous, 52% visible
METAR KILN 261754Z AUTO 34007KT 10SM -RA FEW024 BKN035 BKN046 27/22 A3004 RMK AO2 LTG DSNT S AND SW RAB50 SLP158 P0000 60000 T02720222 10283 20239 58007
Pressure 30.00 in
Visibility 10.0 miles
Clouds Few 2400 ft
Mostly Cloudy 3500 ft
Mostly Cloudy 4600 ft
Heat Index 82 °F
Dew Point 73 °F
Humidity 81%
Rainfall 0.00 in
Snow Depth Not available.
6:30 AM 8:53 PM
Waning Gibbous, 52% visible
METAR KILN 261754Z AUTO 34007KT 10SM -RA FEW024 BKN035 BKN046 27/22 A3004 RMK AO2 LTG DSNT S AND SW RAB50 SLP158 P0000 60000 T02720222 10283 20239 58007

10-Day Weather Forecast

Almanac

Astronomy

Jul. 26, 2016 Rise Set
Actual Time
Civil Twilight
Nautical Twilight
Astronomical Twilight
Moon
Length of Visible Light
Length of Day
Tomorrow will be .
, % of the Moon is Illuminated

Today's Extremes

State Highs State Lows

Community

WunderPhotos

Upload Photos

1,927,653 photos uploaded!

WunderBlog® & News

Nearby

Air Quality

  Air Quality AQ Index Pollutant
Not available.

Snow Depth

Station Depth Elevation

Earthquake Activity

City Distance Mag. Time & Date
Minimum magnitude displayed is 2.5.

Coastal Water Temperatures

Place Temperature

Stations

Nearby Weather Stations

Station Location Temp. Windchill Dew Point Humidity Wind Precip. Elev Updated Type
                   

Watches & Warnings

There are currently no watches in effect.